CYSB

Sudbury Airport

Sudbury, , Canada
METAR CYSB 170700Z 02006KT 15SM FEW190 M24/M26 A3024 RMK CI1 SLP281
Observed Flight Rules
Dec-17 @ 07:00 UTC (an hour ago) Visual Flight Rules
Wind Visibility Clouds
20° at 6 knots 15 miles
  • Few at 19,000' AGL
Temperatures Readings
Current -24°C / -11°F
Dewpoint -26°C / -15°F
Humidity 84%
Altimeter 30.24" Hg
Pressure 1028.1 hPa
Elevation 348
METAR CYSB 170700Z 02006KT 15SM FEW190 M24/M26 A3024 RMK CI1 SLP281
Observed Flight Rules
Dec-17 @ 07:00 UTC
(an hour ago)
VFR
Wind Visibility
20° at 6 knots 15 miles
Clouds
  • Few at 19,000' AGL
Temperature Dewpoint
-24°C / -11°F -26°C / -15°F
Humidity Altimeter Pressure
84% 30.24" Hg 1028.1 hPa